sensor_id;sensor_type;location;lat;lon;timestamp;P1;durP1;ratioP1;P2;durP2;ratioP2
34896;SDS011;43407;51.828;-2.298;2023-09-19T00:00:57;3.78;;;1.67;;
34896;SDS011;43407;51.828;-2.298;2023-09-19T00:03:23;5.72;;;1.77;;
34896;SDS011;43407;51.828;-2.298;2023-09-19T00:05:49;8.40;;;2.15;;
34896;SDS011;43407;51.828;-2.298;2023-09-19T00:08:15;6.13;;;1.55;;
34896;SDS011;43407;51.828;-2.298;2023-09-19T00:10:41;6.70;;;1.67;;
34896;SDS011;43407;51.828;-2.298;2023-09-19T00:13:07;4.60;;;1.80;;
34896;SDS011;43407;51.828;-2.298;2023-09-19T00:15:38;7.80;;;2.03;;
34896;SDS011;43407;51.828;-2.298;2023-09-19T00:18:05;7.60;;;1.67;;
34896;SDS011;43407;51.828;-2.298;2023-09-19T00:20:32;5.90;;;1.70;;
34896;SDS011;43407;51.828;-2.298;2023-09-19T00:22:59;5.50;;;1.70;;
34896;SDS011;43407;51.828;-2.298;2023-09-19T00:25:33;5.20;;;1.63;;
34896;SDS011;43407;51.828;-2.298;2023-09-19T00:28:00;7.50;;;2.00;;
34896;SDS011;43407;51.828;-2.298;2023-09-19T00:30:26;5.45;;;1.73;;
34896;SDS011;43407;51.828;-2.298;2023-09-19T00:32:52;4.55;;;1.60;;
34896;SDS011;43407;51.828;-2.298;2023-09-19T00:35:23;5.15;;;1.40;;
34896;SDS011;43407;51.828;-2.298;2023-09-19T00:37:49;3.55;;;1.40;;
34896;SDS011;43407;51.828;-2.298;2023-09-19T00:40:15;6.93;;;1.55;;
34896;SDS011;43407;51.828;-2.298;2023-09-19T00:42:42;5.25;;;1.60;;
34896;SDS011;43407;51.828;-2.298;2023-09-19T00:45:08;7.20;;;1.67;;
34896;SDS011;43407;51.828;-2.298;2023-09-19T00:47:37;8.80;;;1.63;;
34896;SDS011;43407;51.828;-2.298;2023-09-19T00:50:06;5.40;;;1.80;;
34896;SDS011;43407;51.828;-2.298;2023-09-19T00:52:34;5.35;;;1.60;;
34896;SDS011;43407;51.828;-2.298;2023-09-19T00:55:02;4.80;;;1.60;;
34896;SDS011;43407;51.828;-2.298;2023-09-19T00:57:28;4.25;;;1.42;;
34896;SDS011;43407;51.828;-2.298;2023-09-19T00:59:54;5.10;;;1.60;;
34896;SDS011;43407;51.828;-2.298;2023-09-19T01:02:20;9.95;;;1.85;;
34896;SDS011;43407;51.828;-2.298;2023-09-19T01:04:46;4.28;;;1.73;;
34896;SDS011;43407;51.828;-2.298;2023-09-19T01:07:12;8.68;;;1.70;;
34896;SDS011;43407;51.828;-2.298;2023-09-19T01:09:39;10.73;;;2.25;;
34896;SDS011;43407;51.828;-2.298;2023-09-19T01:12:05;6.05;;;1.98;;
34896;SDS011;43407;51.828;-2.298;2023-09-19T01:30:31;13.30;;;2.75;;
34896;SDS011;43407;51.828;-2.298;2023-09-19T01:32:56;8.55;;;2.45;;
34896;SDS011;43407;51.828;-2.298;2023-09-19T01:35:22;7.80;;;2.55;;
34896;SDS011;43407;51.828;-2.298;2023-09-19T01:37:48;9.77;;;2.05;;
34896;SDS011;43407;51.828;-2.298;2023-09-19T01:40:15;8.43;;;2.05;;
34896;SDS011;43407;51.828;-2.298;2023-09-19T01:42:59;9.15;;;2.70;;
34896;SDS011;43407;51.828;-2.298;2023-09-19T01:51:03;9.80;;;2.88;;
34896;SDS011;43407;51.828;-2.298;2023-09-19T01:54:16;7.35;;;2.45;;
34896;SDS011;43407;51.828;-2.298;2023-09-19T01:56:36;12.02;;;3.03;;
34896;SDS011;43407;51.828;-2.298;2023-09-19T01:59:09;9.20;;;2.40;;
34896;SDS011;43407;51.828;-2.298;2023-09-19T02:01:37;12.77;;;2.63;;
34896;SDS011;43407;51.828;-2.298;2023-09-19T02:04:03;10.07;;;2.38;;
34896;SDS011;43407;51.828;-2.298;2023-09-19T02:06:28;9.55;;;2.47;;
34896;SDS011;43407;51.828;-2.298;2023-09-19T02:08:54;11.23;;;2.63;;
34896;SDS011;43407;51.828;-2.298;2023-09-19T02:11:20;9.73;;;2.53;;
34896;SDS011;43407;51.828;-2.298;2023-09-19T02:13:46;13.27;;;3.22;;
34896;SDS011;43407;51.828;-2.298;2023-09-19T02:16:11;11.88;;;2.90;;
34896;SDS011;43407;51.828;-2.298;2023-09-19T02:18:37;14.45;;;2.88;;
34896;SDS011;43407;51.828;-2.298;2023-09-19T02:21:04;14.27;;;2.70;;
34896;SDS011;43407;51.828;-2.298;2023-09-19T02:23:31;11.27;;;2.72;;
34896;SDS011;43407;51.828;-2.298;2023-09-19T02:25:58;14.00;;;2.75;;
34896;SDS011;43407;51.828;-2.298;2023-09-19T02:28:25;8.73;;;2.28;;
34896;SDS011;43407;51.828;-2.298;2023-09-19T02:30:55;11.48;;;2.70;;
34896;SDS011;43407;51.828;-2.298;2023-09-19T02:33:21;10.65;;;2.60;;
34896;SDS011;43407;51.828;-2.298;2023-09-19T02:35:46;14.55;;;3.03;;
34896;SDS011;43407;51.828;-2.298;2023-09-19T02:38:12;7.03;;;2.20;;
34896;SDS011;43407;51.828;-2.298;2023-09-19T02:40:38;11.77;;;2.92;;
34896;SDS011;43407;51.828;-2.298;2023-09-19T02:43:03;14.70;;;3.30;;
34896;SDS011;43407;51.828;-2.298;2023-09-19T02:45:30;10.88;;;2.42;;
34896;SDS011;43407;51.828;-2.298;2023-09-19T02:47:55;13.27;;;3.20;;
34896;SDS011;43407;51.828;-2.298;2023-09-19T02:50:22;10.25;;;2.72;;
34896;SDS011;43407;51.828;-2.298;2023-09-19T02:52:47;15.88;;;2.67;;
34896;SDS011;43407;51.828;-2.298;2023-09-19T02:55:16;12.90;;;3.00;;
34896;SDS011;43407;51.828;-2.298;2023-09-19T02:57:51;9.35;;;2.75;;
34896;SDS011;43407;51.828;-2.298;2023-09-19T03:00:19;13.15;;;2.88;;
34896;SDS011;43407;51.828;-2.298;2023-09-19T03:02:46;15.48;;;3.13;;
34896;SDS011;43407;51.828;-2.298;2023-09-19T03:05:13;9.70;;;2.70;;
34896;SDS011;43407;51.828;-2.298;2023-09-19T03:07:38;12.93;;;3.17;;
34896;SDS011;43407;51.828;-2.298;2023-09-19T03:10:07;12.43;;;2.75;;
34896;SDS011;43407;51.828;-2.298;2023-09-19T03:12:33;13.93;;;2.75;;
34896;SDS011;43407;51.828;-2.298;2023-09-19T03:14:59;14.98;;;2.72;;
34896;SDS011;43407;51.828;-2.298;2023-09-19T03:17:25;14.55;;;2.78;;
34896;SDS011;43407;51.828;-2.298;2023-09-19T03:19:50;11.40;;;2.80;;
34896;SDS011;43407;51.828;-2.298;2023-09-19T03:22:16;11.27;;;3.25;;
34896;SDS011;43407;51.828;-2.298;2023-09-19T03:24:42;9.65;;;3.15;;
34896;SDS011;43407;51.828;-2.298;2023-09-19T03:27:09;12.73;;;3.28;;
34896;SDS011;43407;51.828;-2.298;2023-09-19T03:29:35;10.15;;;2.30;;
34896;SDS011;43407;51.828;-2.298;2023-09-19T03:32:01;12.93;;;2.80;;
34896;SDS011;43407;51.828;-2.298;2023-09-19T03:34:26;11.73;;;3.03;;
34896;SDS011;43407;51.828;-2.298;2023-09-19T03:36:52;13.07;;;2.85;;
34896;SDS011;43407;51.828;-2.298;2023-09-19T03:39:17;13.82;;;2.40;;
34896;SDS011;43407;51.828;-2.298;2023-09-19T03:41:43;9.05;;;2.17;;
34896;SDS011;43407;51.828;-2.298;2023-09-19T03:44:10;8.68;;;2.00;;
34896;SDS011;43407;51.828;-2.298;2023-09-19T03:46:35;8.38;;;2.05;;
34896;SDS011;43407;51.828;-2.298;2023-09-19T03:49:01;11.45;;;2.40;;
34896;SDS011;43407;51.828;-2.298;2023-09-19T03:51:27;8.88;;;2.05;;
34896;SDS011;43407;51.828;-2.298;2023-09-19T03:53:53;6.35;;;1.63;;
34896;SDS011;43407;51.828;-2.298;2023-09-19T03:56:18;7.30;;;1.83;;
34896;SDS011;43407;51.828;-2.298;2023-09-19T03:58:44;8.60;;;2.30;;
34896;SDS011;43407;51.828;-2.298;2023-09-19T04:01:09;12.23;;;2.40;;
34896;SDS011;43407;51.828;-2.298;2023-09-19T04:03:35;14.70;;;2.47;;
34896;SDS011;43407;51.828;-2.298;2023-09-19T04:06:14;6.35;;;1.98;;
34896;SDS011;43407;51.828;-2.298;2023-09-19T04:08:41;9.65;;;1.98;;
34896;SDS011;43407;51.828;-2.298;2023-09-19T04:11:07;6.28;;;2.08;;
34896;SDS011;43407;51.828;-2.298;2023-09-19T04:13:32;11.25;;;2.10;;
34896;SDS011;43407;51.828;-2.298;2023-09-19T04:15:58;8.50;;;2.00;;
34896;SDS011;43407;51.828;-2.298;2023-09-19T04:18:23;10.65;;;2.20;;
34896;SDS011;43407;51.828;-2.298;2023-09-19T04:20:49;13.45;;;2.17;;
34896;SDS011;43407;51.828;-2.298;2023-09-19T04:23:15;5.97;;;1.83;;
34896;SDS011;43407;51.828;-2.298;2023-09-19T04:25:42;11.30;;;2.17;;
34896;SDS011;43407;51.828;-2.298;2023-09-19T04:28:08;11.43;;;2.47;;
34896;SDS011;43407;51.828;-2.298;2023-09-19T04:30:35;13.23;;;2.80;;
34896;SDS011;43407;51.828;-2.298;2023-09-19T04:33:01;12.85;;;2.53;;
34896;SDS011;43407;51.828;-2.298;2023-09-19T04:35:26;9.40;;;1.73;;
34896;SDS011;43407;51.828;-2.298;2023-09-19T04:37:54;9.25;;;2.13;;
34896;SDS011;43407;51.828;-2.298;2023-09-19T04:40:19;7.97;;;2.08;;
34896;SDS011;43407;51.828;-2.298;2023-09-19T04:42:52;12.60;;;2.17;;
34896;SDS011;43407;51.828;-2.298;2023-09-19T04:45:21;9.55;;;2.50;;
34896;SDS011;43407;51.828;-2.298;2023-09-19T04:47:47;8.15;;;2.08;;
34896;SDS011;43407;51.828;-2.298;2023-09-19T04:50:12;7.00;;;1.77;;
34896;SDS011;43407;51.828;-2.298;2023-09-19T04:52:39;9.30;;;1.83;;
34896;SDS011;43407;51.828;-2.298;2023-09-19T04:55:08;5.10;;;1.40;;
34896;SDS011;43407;51.828;-2.298;2023-09-19T04:57:41;13.48;;;1.88;;
34896;SDS011;43407;51.828;-2.298;2023-09-19T05:00:08;8.10;;;1.70;;
34896;SDS011;43407;51.828;-2.298;2023-09-19T05:02:39;9.52;;;1.70;;
34896;SDS011;43407;51.828;-2.298;2023-09-19T05:05:05;9.13;;;1.75;;
34896;SDS011;43407;51.828;-2.298;2023-09-19T05:07:43;4.10;;;1.20;;
34896;SDS011;43407;51.828;-2.298;2023-09-19T05:10:09;4.55;;;1.10;;
34896;SDS011;43407;51.828;-2.298;2023-09-19T05:12:36;6.75;;;1.50;;
34896;SDS011;43407;51.828;-2.298;2023-09-19T05:15:05;10.38;;;2.03;;
34896;SDS011;43407;51.828;-2.298;2023-09-19T05:17:32;4.63;;;1.45;;
34896;SDS011;43407;51.828;-2.298;2023-09-19T05:19:58;6.00;;;1.80;;
34896;SDS011;43407;51.828;-2.298;2023-09-19T05:22:28;4.75;;;1.40;;
34896;SDS011;43407;51.828;-2.298;2023-09-19T05:24:54;6.30;;;1.85;;
34896;SDS011;43407;51.828;-2.298;2023-09-19T05:27:20;4.43;;;1.52;;
34896;SDS011;43407;51.828;-2.298;2023-09-19T05:29:46;6.57;;;1.42;;
34896;SDS011;43407;51.828;-2.298;2023-09-19T05:32:12;6.57;;;1.73;;
34896;SDS011;43407;51.828;-2.298;2023-09-19T05:34:38;4.40;;;1.30;;
34896;SDS011;43407;51.828;-2.298;2023-09-19T05:37:04;9.25;;;1.40;;
34896;SDS011;43407;51.828;-2.298;2023-09-19T05:39:33;4.28;;;1.27;;
34896;SDS011;43407;51.828;-2.298;2023-09-19T05:41:59;4.60;;;1.40;;
34896;SDS011;43407;51.828;-2.298;2023-09-19T05:44:25;4.82;;;1.48;;
34896;SDS011;43407;51.828;-2.298;2023-09-19T05:46:51;5.30;;;1.60;;
34896;SDS011;43407;51.828;-2.298;2023-09-19T05:49:17;7.57;;;2.00;;
34896;SDS011;43407;51.828;-2.298;2023-09-19T05:51:43;7.90;;;2.10;;
34896;SDS011;43407;51.828;-2.298;2023-09-19T05:54:08;9.20;;;2.13;;
34896;SDS011;43407;51.828;-2.298;2023-09-19T05:56:36;7.82;;;2.10;;
34896;SDS011;43407;51.828;-2.298;2023-09-19T05:59:01;4.60;;;2.00;;
34896;SDS011;43407;51.828;-2.298;2023-09-19T06:01:28;8.40;;;2.45;;
34896;SDS011;43407;51.828;-2.298;2023-09-19T06:03:57;10.88;;;2.47;;
34896;SDS011;43407;51.828;-2.298;2023-09-19T06:06:25;6.75;;;2.38;;
34896;SDS011;43407;51.828;-2.298;2023-09-19T06:08:51;5.25;;;2.17;;
34896;SDS011;43407;51.828;-2.298;2023-09-19T06:11:16;7.53;;;1.90;;
34896;SDS011;43407;51.828;-2.298;2023-09-19T06:13:45;8.25;;;2.50;;
34896;SDS011;43407;51.828;-2.298;2023-09-19T06:16:12;6.80;;;2.17;;
34896;SDS011;43407;51.828;-2.298;2023-09-19T06:18:38;7.13;;;2.42;;
34896;SDS011;43407;51.828;-2.298;2023-09-19T06:21:03;6.65;;;2.08;;
34896;SDS011;43407;51.828;-2.298;2023-09-19T06:23:33;5.93;;;1.65;;
34896;SDS011;43407;51.828;-2.298;2023-09-19T06:25:59;4.90;;;1.73;;
34896;SDS011;43407;51.828;-2.298;2023-09-19T06:28:25;5.82;;;2.13;;
34896;SDS011;43407;51.828;-2.298;2023-09-19T06:30:53;9.60;;;2.05;;
34896;SDS011;43407;51.828;-2.298;2023-09-19T06:33:19;6.57;;;2.55;;
34896;SDS011;43407;51.828;-2.298;2023-09-19T06:35:46;8.48;;;1.85;;
34896;SDS011;43407;51.828;-2.298;2023-09-19T06:38:13;10.23;;;2.22;;
34896;SDS011;43407;51.828;-2.298;2023-09-19T06:40:40;10.45;;;2.42;;
34896;SDS011;43407;51.828;-2.298;2023-09-19T06:43:09;9.40;;;2.80;;
34896;SDS011;43407;51.828;-2.298;2023-09-19T06:45:35;10.68;;;2.67;;
34896;SDS011;43407;51.828;-2.298;2023-09-19T06:48:01;9.77;;;2.78;;
34896;SDS011;43407;51.828;-2.298;2023-09-19T06:50:28;15.52;;;3.22;;
34896;SDS011;43407;51.828;-2.298;2023-09-19T06:52:56;14.85;;;3.65;;
34896;SDS011;43407;51.828;-2.298;2023-09-19T06:55:22;8.68;;;3.28;;
34896;SDS011;43407;51.828;-2.298;2023-09-19T06:57:52;13.25;;;3.90;;
34896;SDS011;43407;51.828;-2.298;2023-09-19T07:00:21;15.70;;;3.60;;
34896;SDS011;43407;51.828;-2.298;2023-09-19T07:05:30;12.13;;;3.30;;
34896;SDS011;43407;51.828;-2.298;2023-09-19T07:07:56;10.75;;;3.50;;
34896;SDS011;43407;51.828;-2.298;2023-09-19T07:10:29;12.90;;;4.15;;
34896;SDS011;43407;51.828;-2.298;2023-09-19T07:13:02;15.35;;;3.72;;
34896;SDS011;43407;51.828;-2.298;2023-09-19T07:15:35;13.70;;;3.70;;
34896;SDS011;43407;51.828;-2.298;2023-09-19T07:18:04;15.43;;;4.22;;
34896;SDS011;43407;51.828;-2.298;2023-09-19T07:20:30;17.50;;;4.13;;
34896;SDS011;43407;51.828;-2.298;2023-09-19T07:22:57;15.13;;;4.35;;
34896;SDS011;43407;51.828;-2.298;2023-09-19T07:25:29;22.35;;;4.88;;
34896;SDS011;43407;51.828;-2.298;2023-09-19T07:27:56;10.45;;;3.45;;
34896;SDS011;43407;51.828;-2.298;2023-09-19T07:30:25;15.80;;;4.00;;
34896;SDS011;43407;51.828;-2.298;2023-09-19T07:32:51;14.88;;;3.97;;
34896;SDS011;43407;51.828;-2.298;2023-09-19T07:35:17;14.18;;;4.10;;
34896;SDS011;43407;51.828;-2.298;2023-09-19T07:37:45;13.38;;;3.80;;
34896;SDS011;43407;51.828;-2.298;2023-09-19T07:40:18;15.13;;;3.80;;
34896;SDS011;43407;51.828;-2.298;2023-09-19T07:42:44;17.23;;;4.05;;
34896;SDS011;43407;51.828;-2.298;2023-09-19T07:45:12;15.05;;;4.43;;
34896;SDS011;43407;51.828;-2.298;2023-09-19T07:47:48;16.88;;;4.53;;
34896;SDS011;43407;51.828;-2.298;2023-09-19T07:50:15;14.60;;;3.88;;
34896;SDS011;43407;51.828;-2.298;2023-09-19T07:52:44;10.48;;;3.78;;
34896;SDS011;43407;51.828;-2.298;2023-09-19T07:55:10;13.13;;;4.22;;
34896;SDS011;43407;51.828;-2.298;2023-09-19T07:57:45;16.88;;;4.22;;
34896;SDS011;43407;51.828;-2.298;2023-09-19T08:00:11;16.85;;;4.43;;
34896;SDS011;43407;51.828;-2.298;2023-09-19T08:02:38;12.25;;;3.90;;
34896;SDS011;43407;51.828;-2.298;2023-09-19T08:05:04;18.92;;;4.57;;
34896;SDS011;43407;51.828;-2.298;2023-09-19T08:07:40;14.05;;;4.68;;
34896;SDS011;43407;51.828;-2.298;2023-09-19T08:10:07;12.70;;;4.07;;
34896;SDS011;43407;51.828;-2.298;2023-09-19T08:12:38;15.75;;;4.43;;
34896;SDS011;43407;51.828;-2.298;2023-09-19T08:15:11;23.65;;;5.38;;
34896;SDS011;43407;51.828;-2.298;2023-09-19T08:17:44;17.10;;;5.05;;
34896;SDS011;43407;51.828;-2.298;2023-09-19T08:20:10;16.75;;;4.55;;
34896;SDS011;43407;51.828;-2.298;2023-09-19T08:22:48;16.77;;;5.72;;
34896;SDS011;43407;51.828;-2.298;2023-09-19T08:25:17;18.70;;;5.10;;
34896;SDS011;43407;51.828;-2.298;2023-09-19T08:27:46;14.57;;;4.65;;
34896;SDS011;43407;51.828;-2.298;2023-09-19T08:30:13;23.73;;;5.25;;
34896;SDS011;43407;51.828;-2.298;2023-09-19T08:32:39;17.58;;;5.05;;
34896;SDS011;43407;51.828;-2.298;2023-09-19T08:35:07;18.73;;;4.97;;
34896;SDS011;43407;51.828;-2.298;2023-09-19T08:37:34;17.67;;;5.10;;
34896;SDS011;43407;51.828;-2.298;2023-09-19T08:39:59;15.45;;;4.93;;
34896;SDS011;43407;51.828;-2.298;2023-09-19T08:42:25;20.05;;;5.03;;
34896;SDS011;43407;51.828;-2.298;2023-09-19T08:44:52;18.73;;;4.70;;
34896;SDS011;43407;51.828;-2.298;2023-09-19T08:47:23;19.40;;;4.95;;
34896;SDS011;43407;51.828;-2.298;2023-09-19T08:50:02;20.13;;;5.05;;
34896;SDS011;43407;51.828;-2.298;2023-09-19T08:52:39;17.85;;;4.53;;
34896;SDS011;43407;51.828;-2.298;2023-09-19T08:55:07;12.82;;;4.10;;
34896;SDS011;43407;51.828;-2.298;2023-09-19T08:57:35;17.17;;;4.70;;
34896;SDS011;43407;51.828;-2.298;2023-09-19T09:00:07;10.73;;;3.80;;
34896;SDS011;43407;51.828;-2.298;2023-09-19T09:02:37;13.15;;;4.03;;
34896;SDS011;43407;51.828;-2.298;2023-09-19T09:05:06;10.32;;;3.85;;
34896;SDS011;43407;51.828;-2.298;2023-09-19T09:07:34;14.82;;;3.90;;
34896;SDS011;43407;51.828;-2.298;2023-09-19T09:10:02;10.65;;;3.83;;
34896;SDS011;43407;51.828;-2.298;2023-09-19T09:12:28;12.15;;;3.88;;
34896;SDS011;43407;51.828;-2.298;2023-09-19T09:14:54;11.32;;;3.45;;
34896;SDS011;43407;51.828;-2.298;2023-09-19T09:17:22;14.35;;;3.60;;
34896;SDS011;43407;51.828;-2.298;2023-09-19T09:19:51;12.35;;;3.55;;
34896;SDS011;43407;51.828;-2.298;2023-09-19T09:22:18;11.38;;;3.85;;
34896;SDS011;43407;51.828;-2.298;2023-09-19T09:24:56;8.57;;;3.20;;
34896;SDS011;43407;51.828;-2.298;2023-09-19T09:27:30;8.25;;;3.53;;
34896;SDS011;43407;51.828;-2.298;2023-09-19T09:29:56;12.45;;;3.83;;
34896;SDS011;43407;51.828;-2.298;2023-09-19T09:32:26;11.13;;;3.35;;
34896;SDS011;43407;51.828;-2.298;2023-09-19T09:34:57;11.23;;;3.67;;
34896;SDS011;43407;51.828;-2.298;2023-09-19T09:37:24;12.55;;;3.40;;
34896;SDS011;43407;51.828;-2.298;2023-09-19T09:39:52;12.23;;;3.75;;
34896;SDS011;43407;51.828;-2.298;2023-09-19T09:42:30;11.52;;;3.40;;
34896;SDS011;43407;51.828;-2.298;2023-09-19T09:45:13;10.27;;;3.10;;
34896;SDS011;43407;51.828;-2.298;2023-09-19T09:47:46;13.48;;;3.63;;
34896;SDS011;43407;51.828;-2.298;2023-09-19T09:50:28;6.25;;;2.60;;
34896;SDS011;43407;51.828;-2.298;2023-09-19T09:53:25;11.75;;;2.97;;
34896;SDS011;43407;51.828;-2.298;2023-09-19T09:58:38;9.43;;;2.78;;
34896;SDS011;43407;51.828;-2.298;2023-09-19T10:01:14;7.10;;;2.70;;
34896;SDS011;43407;51.828;-2.298;2023-09-19T10:03:41;9.18;;;3.03;;
34896;SDS011;43407;51.828;-2.298;2023-09-19T10:06:14;7.60;;;2.60;;
34896;SDS011;43407;51.828;-2.298;2023-09-19T10:09:02;7.20;;;2.60;;
34896;SDS011;43407;51.828;-2.298;2023-09-19T10:11:41;10.27;;;2.30;;
34896;SDS011;43407;51.828;-2.298;2023-09-19T10:14:09;7.57;;;2.40;;
34896;SDS011;43407;51.828;-2.298;2023-09-19T10:16:38;6.32;;;2.90;;
34896;SDS011;43407;51.828;-2.298;2023-09-19T10:19:07;4.88;;;2.25;;
34896;SDS011;43407;51.828;-2.298;2023-09-19T10:21:34;9.27;;;2.88;;
34896;SDS011;43407;51.828;-2.298;2023-09-19T10:24:01;5.57;;;2.30;;
34896;SDS011;43407;51.828;-2.298;2023-09-19T10:26:30;11.07;;;2.75;;
34896;SDS011;43407;51.828;-2.298;2023-09-19T10:28:56;5.55;;;2.35;;
34896;SDS011;43407;51.828;-2.298;2023-09-19T10:31:24;9.45;;;2.83;;
34896;SDS011;43407;51.828;-2.298;2023-09-19T10:33:53;6.35;;;2.08;;
34896;SDS011;43407;51.828;-2.298;2023-09-19T10:36:22;6.25;;;2.08;;
34896;SDS011;43407;51.828;-2.298;2023-09-19T10:38:52;7.05;;;2.22;;
34896;SDS011;43407;51.828;-2.298;2023-09-19T10:41:20;6.95;;;2.63;;
34896;SDS011;43407;51.828;-2.298;2023-09-19T10:43:47;5.22;;;2.08;;
34896;SDS011;43407;51.828;-2.298;2023-09-19T10:46:13;7.68;;;2.00;;
34896;SDS011;43407;51.828;-2.298;2023-09-19T10:48:40;5.20;;;1.70;;
34896;SDS011;43407;51.828;-2.298;2023-09-19T10:51:19;3.45;;;1.60;;
34896;SDS011;43407;51.828;-2.298;2023-09-19T10:53:51;5.60;;;2.40;;
34896;SDS011;43407;51.828;-2.298;2023-09-19T10:56:21;5.25;;;2.10;;
34896;SDS011;43407;51.828;-2.298;2023-09-19T10:58:49;3.13;;;1.73;;
34896;SDS011;43407;51.828;-2.298;2023-09-19T11:01:16;7.18;;;1.65;;
34896;SDS011;43407;51.828;-2.298;2023-09-19T11:03:42;4.30;;;1.60;;
34896;SDS011;43407;51.828;-2.298;2023-09-19T11:06:15;3.50;;;1.60;;
34896;SDS011;43407;51.828;-2.298;2023-09-19T11:11:50;3.65;;;1.60;;
34896;SDS011;43407;51.828;-2.298;2023-09-19T11:30:36;2.10;;;1.10;;
34896;SDS011;43407;51.828;-2.298;2023-09-19T11:33:15;4.07;;;1.50;;
34896;SDS011;43407;51.828;-2.298;2023-09-19T11:39:10;1.52;;;1.20;;
34896;SDS011;43407;51.828;-2.298;2023-09-19T11:43:51;1.92;;;1.00;;
34896;SDS011;43407;51.828;-2.298;2023-09-19T11:46:29;2.65;;;1.15;;
34896;SDS011;43407;51.828;-2.298;2023-09-19T11:49:04;3.67;;;1.08;;
34896;SDS011;43407;51.828;-2.298;2023-09-19T11:51:39;1.45;;;0.93;;
34896;SDS011;43407;51.828;-2.298;2023-09-19T11:54:10;3.35;;;1.00;;
34896;SDS011;43407;51.828;-2.298;2023-09-19T11:56:38;5.03;;;1.33;;
34896;SDS011;43407;51.828;-2.298;2023-09-19T11:59:06;3.72;;;0.82;;
34896;SDS011;43407;51.828;-2.298;2023-09-19T12:01:33;4.03;;;0.98;;
34896;SDS011;43407;51.828;-2.298;2023-09-19T12:04:00;3.55;;;1.13;;
34896;SDS011;43407;51.828;-2.298;2023-09-19T12:06:29;4.28;;;1.25;;
34896;SDS011;43407;51.828;-2.298;2023-09-19T12:08:57;5.72;;;1.15;;
34896;SDS011;43407;51.828;-2.298;2023-09-19T12:11:30;3.45;;;1.27;;
34896;SDS011;43407;51.828;-2.298;2023-09-19T12:14:01;5.38;;;1.73;;
34896;SDS011;43407;51.828;-2.298;2023-09-19T12:16:27;8.80;;;2.30;;
34896;SDS011;43407;51.828;-2.298;2023-09-19T12:18:56;8.35;;;2.08;;
34896;SDS011;43407;51.828;-2.298;2023-09-19T12:21:23;13.05;;;2.92;;
34896;SDS011;43407;51.828;-2.298;2023-09-19T12:24:04;11.93;;;2.88;;
34896;SDS011;43407;51.828;-2.298;2023-09-19T12:26:44;17.05;;;3.70;;
34896;SDS011;43407;51.828;-2.298;2023-09-19T12:29:16;12.13;;;3.17;;
34896;SDS011;43407;51.828;-2.298;2023-09-19T12:31:58;16.77;;;4.00;;
34896;SDS011;43407;51.828;-2.298;2023-09-19T12:34:25;15.02;;;3.45;;
34896;SDS011;43407;51.828;-2.298;2023-09-19T12:37:11;17.25;;;3.50;;
34896;SDS011;43407;51.828;-2.298;2023-09-19T12:39:38;12.88;;;4.20;;
34896;SDS011;43407;51.828;-2.298;2023-09-19T12:42:07;18.73;;;4.10;;
34896;SDS011;43407;51.828;-2.298;2023-09-19T12:44:37;13.50;;;3.70;;
34896;SDS011;43407;51.828;-2.298;2023-09-19T12:47:13;16.98;;;4.30;;
34896;SDS011;43407;51.828;-2.298;2023-09-19T12:55:30;11.57;;;3.13;;
34896;SDS011;43407;51.828;-2.298;2023-09-19T13:00:45;11.40;;;2.92;;
34896;SDS011;43407;51.828;-2.298;2023-09-19T13:05:53;11.70;;;2.50;;
34896;SDS011;43407;51.828;-2.298;2023-09-19T13:13:27;11.93;;;3.13;;
34896;SDS011;43407;51.828;-2.298;2023-09-19T13:15:54;12.75;;;3.22;;
34896;SDS011;43407;51.828;-2.298;2023-09-19T13:18:22;13.10;;;3.20;;
34896;SDS011;43407;51.828;-2.298;2023-09-19T13:23:37;11.30;;;2.83;;
34896;SDS011;43407;51.828;-2.298;2023-09-19T13:26:03;8.93;;;2.40;;
34896;SDS011;43407;51.828;-2.298;2023-09-19T13:28:33;11.18;;;3.25;;
34896;SDS011;43407;51.828;-2.298;2023-09-19T13:30:59;8.50;;;2.63;;
34896;SDS011;43407;51.828;-2.298;2023-09-19T13:33:24;12.45;;;3.13;;
34896;SDS011;43407;51.828;-2.298;2023-09-19T13:35:51;10.70;;;3.08;;
34896;SDS011;43407;51.828;-2.298;2023-09-19T13:38:17;10.00;;;3.08;;
34896;SDS011;43407;51.828;-2.298;2023-09-19T13:40:45;11.98;;;2.92;;
34896;SDS011;43407;51.828;-2.298;2023-09-19T13:43:11;15.70;;;3.33;;
34896;SDS011;43407;51.828;-2.298;2023-09-19T13:45:37;16.20;;;3.85;;
34896;SDS011;43407;51.828;-2.298;2023-09-19T13:48:03;10.75;;;2.90;;
34896;SDS011;43407;51.828;-2.298;2023-09-19T13:50:28;14.00;;;3.35;;
34896;SDS011;43407;51.828;-2.298;2023-09-19T13:52:56;13.70;;;3.40;;
34896;SDS011;43407;51.828;-2.298;2023-09-19T13:55:22;16.83;;;3.47;;
34896;SDS011;43407;51.828;-2.298;2023-09-19T13:57:50;15.32;;;3.45;;
34896;SDS011;43407;51.828;-2.298;2023-09-19T14:00:17;13.07;;;3.00;;
34896;SDS011;43407;51.828;-2.298;2023-09-19T14:02:43;10.88;;;2.97;;
34896;SDS011;43407;51.828;-2.298;2023-09-19T14:05:11;8.27;;;2.88;;
34896;SDS011;43407;51.828;-2.298;2023-09-19T14:07:40;10.93;;;3.00;;
34896;SDS011;43407;51.828;-2.298;2023-09-19T14:10:06;12.07;;;2.92;;
34896;SDS011;43407;51.828;-2.298;2023-09-19T14:12:33;16.65;;;3.40;;
34896;SDS011;43407;51.828;-2.298;2023-09-19T14:14:59;11.00;;;2.50;;
34896;SDS011;43407;51.828;-2.298;2023-09-19T14:17:25;8.55;;;2.40;;
34896;SDS011;43407;51.828;-2.298;2023-09-19T14:19:52;13.05;;;3.13;;
34896;SDS011;43407;51.828;-2.298;2023-09-19T14:22:17;11.30;;;2.72;;
34896;SDS011;43407;51.828;-2.298;2023-09-19T14:24:43;9.50;;;3.05;;
34896;SDS011;43407;51.828;-2.298;2023-09-19T14:27:09;11.63;;;2.80;;
34896;SDS011;43407;51.828;-2.298;2023-09-19T14:29:35;10.00;;;3.22;;
34896;SDS011;43407;51.828;-2.298;2023-09-19T14:32:01;18.33;;;4.53;;
34896;SDS011;43407;51.828;-2.298;2023-09-19T14:34:27;9.88;;;2.97;;
34896;SDS011;43407;51.828;-2.298;2023-09-19T14:36:52;13.32;;;2.90;;
34896;SDS011;43407;51.828;-2.298;2023-09-19T14:39:25;13.80;;;3.44;;
34896;SDS011;43407;51.828;-2.298;2023-09-19T14:41:52;11.80;;;3.25;;
34896;SDS011;43407;51.828;-2.298;2023-09-19T14:44:18;13.55;;;3.47;;
34896;SDS011;43407;51.828;-2.298;2023-09-19T14:46:44;13.75;;;3.03;;
34896;SDS011;43407;51.828;-2.298;2023-09-19T14:49:10;8.73;;;2.67;;
34896;SDS011;43407;51.828;-2.298;2023-09-19T14:51:37;13.18;;;2.97;;
34896;SDS011;43407;51.828;-2.298;2023-09-19T14:54:05;9.25;;;2.50;;
34896;SDS011;43407;51.828;-2.298;2023-09-19T14:56:32;15.23;;;2.97;;
34896;SDS011;43407;51.828;-2.298;2023-09-19T14:58:58;10.70;;;3.08;;
34896;SDS011;43407;51.828;-2.298;2023-09-19T15:01:23;7.43;;;2.08;;
34896;SDS011;43407;51.828;-2.298;2023-09-19T15:03:49;6.38;;;2.10;;
34896;SDS011;43407;51.828;-2.298;2023-09-19T15:06:15;8.88;;;1.70;;
34896;SDS011;43407;51.828;-2.298;2023-09-19T15:08:42;8.88;;;2.50;;
34896;SDS011;43407;51.828;-2.298;2023-09-19T15:11:12;9.30;;;1.65;;
34896;SDS011;43407;51.828;-2.298;2023-09-19T15:13:42;5.93;;;1.77;;
34896;SDS011;43407;51.828;-2.298;2023-09-19T15:16:08;10.88;;;2.03;;
34896;SDS011;43407;51.828;-2.298;2023-09-19T15:18:34;5.65;;;1.50;;
34896;SDS011;43407;51.828;-2.298;2023-09-19T15:21:11;6.60;;;1.80;;
34896;SDS011;43407;51.828;-2.298;2023-09-19T15:23:38;5.68;;;2.00;;
34896;SDS011;43407;51.828;-2.298;2023-09-19T15:26:05;4.97;;;1.50;;
34896;SDS011;43407;51.828;-2.298;2023-09-19T15:28:31;6.22;;;1.70;;
34896;SDS011;43407;51.828;-2.298;2023-09-19T15:31:02;8.82;;;1.90;;
34896;SDS011;43407;51.828;-2.298;2023-09-19T15:33:28;11.65;;;2.38;;
34896;SDS011;43407;51.828;-2.298;2023-09-19T15:36:08;9.75;;;1.90;;
34896;SDS011;43407;51.828;-2.298;2023-09-19T15:41:31;7.75;;;2.15;;
34896;SDS011;43407;51.828;-2.298;2023-09-19T15:43:58;9.00;;;2.30;;
34896;SDS011;43407;51.828;-2.298;2023-09-19T15:46:26;9.20;;;2.53;;
34896;SDS011;43407;51.828;-2.298;2023-09-19T15:48:53;8.70;;;2.55;;